sensor_id;sensor_type;location;lat;lon;timestamp;temperature;humidity
6538;DHT22;3302;52.508;13.454;2023-08-20T00:01:09;25.40;99.90
6538;DHT22;3302;52.508;13.454;2023-08-20T00:03:37;25.30;99.90
6538;DHT22;3302;52.508;13.454;2023-08-20T00:06:03;25.40;99.90
6538;DHT22;3302;52.508;13.454;2023-08-20T00:08:29;25.40;99.90
6538;DHT22;3302;52.508;13.454;2023-08-20T00:10:55;25.40;99.90
6538;DHT22;3302;52.508;13.454;2023-08-20T00:13:21;25.40;99.90
6538;DHT22;3302;52.508;13.454;2023-08-20T00:15:50;25.40;99.90
6538;DHT22;3302;52.508;13.454;2023-08-20T00:18:16;25.40;99.90
6538;DHT22;3302;52.508;13.454;2023-08-20T00:20:42;25.40;99.90
6538;DHT22;3302;52.508;13.454;2023-08-20T00:23:08;25.40;99.90
6538;DHT22;3302;52.508;13.454;2023-08-20T00:25:34;25.40;99.90
6538;DHT22;3302;52.508;13.454;2023-08-20T00:28:00;25.40;99.90
6538;DHT22;3302;52.508;13.454;2023-08-20T00:30:26;25.40;99.90
6538;DHT22;3302;52.508;13.454;2023-08-20T00:32:52;25.40;99.90
6538;DHT22;3302;52.508;13.454;2023-08-20T00:35:18;25.40;99.90
6538;DHT22;3302;52.508;13.454;2023-08-20T00:37:44;25.40;99.90
6538;DHT22;3302;52.508;13.454;2023-08-20T00:40:10;25.40;99.90
6538;DHT22;3302;52.508;13.454;2023-08-20T00:42:37;25.40;99.90
6538;DHT22;3302;52.508;13.454;2023-08-20T00:45:03;25.30;99.90
6538;DHT22;3302;52.508;13.454;2023-08-20T00:47:29;25.30;99.90
6538;DHT22;3302;52.508;13.454;2023-08-20T00:49:56;25.30;99.90
6538;DHT22;3302;52.508;13.454;2023-08-20T00:52:22;25.40;99.90
6538;DHT22;3302;52.508;13.454;2023-08-20T00:54:49;25.40;99.90
6538;DHT22;3302;52.508;13.454;2023-08-20T00:57:17;25.40;99.90
6538;DHT22;3302;52.508;13.454;2023-08-20T00:59:43;25.40;99.90
6538;DHT22;3302;52.508;13.454;2023-08-20T01:02:10;25.30;99.90
6538;DHT22;3302;52.508;13.454;2023-08-20T01:04:36;25.40;99.90
6538;DHT22;3302;52.508;13.454;2023-08-20T01:07:14;25.40;99.90
6538;DHT22;3302;52.508;13.454;2023-08-20T01:12:29;25.30;99.90
6538;DHT22;3302;52.508;13.454;2023-08-20T01:14:55;25.40;99.90
6538;DHT22;3302;52.508;13.454;2023-08-20T01:17:20;25.40;99.90
6538;DHT22;3302;52.508;13.454;2023-08-20T01:19:46;25.40;99.90
6538;DHT22;3302;52.508;13.454;2023-08-20T01:30:08;25.10;99.90
6538;DHT22;3302;52.508;13.454;2023-08-20T01:32:35;25.10;99.90
6538;DHT22;3302;52.508;13.454;2023-08-20T01:35:02;25.00;99.90
6538;DHT22;3302;52.508;13.454;2023-08-20T01:37:28;25.00;99.90
6538;DHT22;3302;52.508;13.454;2023-08-20T01:39:54;24.90;99.90
6538;DHT22;3302;52.508;13.454;2023-08-20T01:42:20;24.90;99.90
6538;DHT22;3302;52.508;13.454;2023-08-20T01:44:46;24.90;99.90
6538;DHT22;3302;52.508;13.454;2023-08-20T01:47:11;24.80;99.90
6538;DHT22;3302;52.508;13.454;2023-08-20T01:49:37;24.70;99.90
6538;DHT22;3302;52.508;13.454;2023-08-20T01:52:03;24.70;99.90
6538;DHT22;3302;52.508;13.454;2023-08-20T01:54:29;24.70;99.90
6538;DHT22;3302;52.508;13.454;2023-08-20T01:56:55;24.70;99.90
6538;DHT22;3302;52.508;13.454;2023-08-20T01:59:22;24.60;99.90
6538;DHT22;3302;52.508;13.454;2023-08-20T02:01:48;24.60;99.90
6538;DHT22;3302;52.508;13.454;2023-08-20T02:04:14;24.60;99.90
6538;DHT22;3302;52.508;13.454;2023-08-20T02:06:39;24.50;99.90
6538;DHT22;3302;52.508;13.454;2023-08-20T02:09:05;24.50;99.90
6538;DHT22;3302;52.508;13.454;2023-08-20T02:11:31;24.40;99.90
6538;DHT22;3302;52.508;13.454;2023-08-20T02:14:02;24.40;99.90
6538;DHT22;3302;52.508;13.454;2023-08-20T02:16:28;24.30;99.90
6538;DHT22;3302;52.508;13.454;2023-08-20T02:18:54;24.40;99.90
6538;DHT22;3302;52.508;13.454;2023-08-20T02:21:20;24.30;99.90
6538;DHT22;3302;52.508;13.454;2023-08-20T02:23:45;24.30;99.90
6538;DHT22;3302;52.508;13.454;2023-08-20T02:26:11;24.30;99.90
6538;DHT22;3302;52.508;13.454;2023-08-20T02:28:37;24.20;99.90
6538;DHT22;3302;52.508;13.454;2023-08-20T02:31:06;24.10;99.90
6538;DHT22;3302;52.508;13.454;2023-08-20T02:33:32;24.20;99.90
6538;DHT22;3302;52.508;13.454;2023-08-20T02:36:02;24.10;99.90
6538;DHT22;3302;52.508;13.454;2023-08-20T02:38:28;24.10;99.90
6538;DHT22;3302;52.508;13.454;2023-08-20T02:40:54;24.10;99.90
6538;DHT22;3302;52.508;13.454;2023-08-20T02:43:20;24.10;99.90
6538;DHT22;3302;52.508;13.454;2023-08-20T02:45:46;24.00;99.90
6538;DHT22;3302;52.508;13.454;2023-08-20T02:48:13;23.90;99.90
6538;DHT22;3302;52.508;13.454;2023-08-20T02:50:39;24.00;99.90
6538;DHT22;3302;52.508;13.454;2023-08-20T02:53:05;23.90;99.90
6538;DHT22;3302;52.508;13.454;2023-08-20T02:55:33;23.90;99.90
6538;DHT22;3302;52.508;13.454;2023-08-20T02:57:59;23.80;99.90
6538;DHT22;3302;52.508;13.454;2023-08-20T03:00:25;23.80;99.90
6538;DHT22;3302;52.508;13.454;2023-08-20T03:02:50;23.80;99.90
6538;DHT22;3302;52.508;13.454;2023-08-20T03:05:16;23.70;99.90
6538;DHT22;3302;52.508;13.454;2023-08-20T03:07:42;23.70;99.90
6538;DHT22;3302;52.508;13.454;2023-08-20T03:10:09;23.70;99.90
6538;DHT22;3302;52.508;13.454;2023-08-20T03:12:34;23.70;99.90
6538;DHT22;3302;52.508;13.454;2023-08-20T03:15:00;23.60;99.90
6538;DHT22;3302;52.508;13.454;2023-08-20T03:17:26;23.60;99.90
6538;DHT22;3302;52.508;13.454;2023-08-20T03:19:59;23.50;99.90
6538;DHT22;3302;52.508;13.454;2023-08-20T03:22:25;23.50;99.90
6538;DHT22;3302;52.508;13.454;2023-08-20T03:24:52;23.50;99.90
6538;DHT22;3302;52.508;13.454;2023-08-20T03:27:18;23.50;99.90
6538;DHT22;3302;52.508;13.454;2023-08-20T03:29:44;23.40;99.90
6538;DHT22;3302;52.508;13.454;2023-08-20T03:32:10;23.40;99.90
6538;DHT22;3302;52.508;13.454;2023-08-20T03:34:36;23.40;99.90
6538;DHT22;3302;52.508;13.454;2023-08-20T03:37:03;23.40;99.90
6538;DHT22;3302;52.508;13.454;2023-08-20T03:39:30;23.30;99.90
6538;DHT22;3302;52.508;13.454;2023-08-20T03:41:57;23.30;99.90
6538;DHT22;3302;52.508;13.454;2023-08-20T03:44:23;23.30;99.90
6538;DHT22;3302;52.508;13.454;2023-08-20T03:46:49;23.30;99.90
6538;DHT22;3302;52.508;13.454;2023-08-20T03:49:14;23.20;99.90
6538;DHT22;3302;52.508;13.454;2023-08-20T03:51:40;23.20;99.90
6538;DHT22;3302;52.508;13.454;2023-08-20T03:54:08;23.20;99.90
6538;DHT22;3302;52.508;13.454;2023-08-20T03:56:34;23.20;99.90
6538;DHT22;3302;52.508;13.454;2023-08-20T03:59:01;23.20;99.90
6538;DHT22;3302;52.508;13.454;2023-08-20T04:01:27;23.20;99.90
6538;DHT22;3302;52.508;13.454;2023-08-20T04:03:53;23.00;99.90
6538;DHT22;3302;52.508;13.454;2023-08-20T04:06:18;23.00;99.90
6538;DHT22;3302;52.508;13.454;2023-08-20T04:08:44;23.00;99.90
6538;DHT22;3302;52.508;13.454;2023-08-20T04:11:10;22.90;99.90
6538;DHT22;3302;52.508;13.454;2023-08-20T04:13:36;22.90;99.90
6538;DHT22;3302;52.508;13.454;2023-08-20T04:16:02;22.90;99.90
6538;DHT22;3302;52.508;13.454;2023-08-20T04:18:28;22.90;99.90
6538;DHT22;3302;52.508;13.454;2023-08-20T04:20:54;22.90;99.90
6538;DHT22;3302;52.508;13.454;2023-08-20T04:23:21;22.80;99.90
6538;DHT22;3302;52.508;13.454;2023-08-20T04:25:46;22.90;99.90
6538;DHT22;3302;52.508;13.454;2023-08-20T04:28:12;22.90;99.90
6538;DHT22;3302;52.508;13.454;2023-08-20T04:30:38;22.80;99.90
6538;DHT22;3302;52.508;13.454;2023-08-20T04:33:05;22.80;99.90
6538;DHT22;3302;52.508;13.454;2023-08-20T04:35:31;22.70;99.90
6538;DHT22;3302;52.508;13.454;2023-08-20T04:37:58;22.80;99.90
6538;DHT22;3302;52.508;13.454;2023-08-20T04:40:24;22.70;99.90
6538;DHT22;3302;52.508;13.454;2023-08-20T04:42:50;22.80;99.90
6538;DHT22;3302;52.508;13.454;2023-08-20T04:45:16;22.80;99.90
6538;DHT22;3302;52.508;13.454;2023-08-20T04:47:46;22.80;99.90
6538;DHT22;3302;52.508;13.454;2023-08-20T04:50:12;22.90;99.90
6538;DHT22;3302;52.508;13.454;2023-08-20T04:52:39;22.90;99.90
6538;DHT22;3302;52.508;13.454;2023-08-20T04:55:05;22.70;99.90
6538;DHT22;3302;52.508;13.454;2023-08-20T04:57:34;22.70;99.90
6538;DHT22;3302;52.508;13.454;2023-08-20T05:00:00;22.70;99.90
6538;DHT22;3302;52.508;13.454;2023-08-20T05:02:26;22.80;99.90
6538;DHT22;3302;52.508;13.454;2023-08-20T05:04:52;22.80;99.90
6538;DHT22;3302;52.508;13.454;2023-08-20T05:07:18;22.80;99.90
6538;DHT22;3302;52.508;13.454;2023-08-20T05:09:44;22.80;99.90
6538;DHT22;3302;52.508;13.454;2023-08-20T05:12:09;22.80;99.90
6538;DHT22;3302;52.508;13.454;2023-08-20T05:14:35;22.90;99.90
6538;DHT22;3302;52.508;13.454;2023-08-20T05:17:01;22.80;99.90
6538;DHT22;3302;52.508;13.454;2023-08-20T05:19:28;22.80;99.90
6538;DHT22;3302;52.508;13.454;2023-08-20T05:21:53;22.80;99.90
6538;DHT22;3302;52.508;13.454;2023-08-20T05:24:22;22.80;99.90
6538;DHT22;3302;52.508;13.454;2023-08-20T05:27:10;22.80;99.90
6538;DHT22;3302;52.508;13.454;2023-08-20T05:29:37;22.80;99.90
6538;DHT22;3302;52.508;13.454;2023-08-20T05:32:03;22.80;99.90
6538;DHT22;3302;52.508;13.454;2023-08-20T05:34:29;22.90;99.90
6538;DHT22;3302;52.508;13.454;2023-08-20T05:36:55;22.80;99.90
6538;DHT22;3302;52.508;13.454;2023-08-20T05:39:21;22.80;99.90
6538;DHT22;3302;52.508;13.454;2023-08-20T05:41:46;22.90;99.90
6538;DHT22;3302;52.508;13.454;2023-08-20T05:44:12;23.00;99.90
6538;DHT22;3302;52.508;13.454;2023-08-20T05:46:38;23.00;99.90
6538;DHT22;3302;52.508;13.454;2023-08-20T05:49:06;22.90;99.90
6538;DHT22;3302;52.508;13.454;2023-08-20T05:51:32;22.90;99.90
6538;DHT22;3302;52.508;13.454;2023-08-20T05:53:58;23.00;99.90
6538;DHT22;3302;52.508;13.454;2023-08-20T05:56:23;23.00;99.90
6538;DHT22;3302;52.508;13.454;2023-08-20T05:58:49;23.00;99.90
6538;DHT22;3302;52.508;13.454;2023-08-20T06:01:15;23.00;99.90
6538;DHT22;3302;52.508;13.454;2023-08-20T06:03:41;23.10;99.90
6538;DHT22;3302;52.508;13.454;2023-08-20T06:06:07;23.10;99.90
6538;DHT22;3302;52.508;13.454;2023-08-20T06:08:32;23.00;99.90
6538;DHT22;3302;52.508;13.454;2023-08-20T06:10:58;23.20;99.90
6538;DHT22;3302;52.508;13.454;2023-08-20T06:13:24;23.10;99.90
6538;DHT22;3302;52.508;13.454;2023-08-20T06:15:50;23.10;99.90
6538;DHT22;3302;52.508;13.454;2023-08-20T06:18:16;23.30;99.90
6538;DHT22;3302;52.508;13.454;2023-08-20T06:20:41;23.40;99.90
6538;DHT22;3302;52.508;13.454;2023-08-20T06:23:07;23.40;99.90
6538;DHT22;3302;52.508;13.454;2023-08-20T06:25:33;23.40;99.90
6538;DHT22;3302;52.508;13.454;2023-08-20T06:27:59;23.30;99.90
6538;DHT22;3302;52.508;13.454;2023-08-20T06:30:25;23.40;99.90
6538;DHT22;3302;52.508;13.454;2023-08-20T06:32:50;23.40;99.90
6538;DHT22;3302;52.508;13.454;2023-08-20T06:35:16;23.30;99.90
6538;DHT22;3302;52.508;13.454;2023-08-20T06:37:42;23.30;99.90
6538;DHT22;3302;52.508;13.454;2023-08-20T06:40:08;23.10;99.90
6538;DHT22;3302;52.508;13.454;2023-08-20T06:42:34;23.20;99.90
6538;DHT22;3302;52.508;13.454;2023-08-20T06:45:00;23.40;99.90
6538;DHT22;3302;52.508;13.454;2023-08-20T06:47:26;23.30;99.90
6538;DHT22;3302;52.508;13.454;2023-08-20T06:49:51;23.30;99.90
6538;DHT22;3302;52.508;13.454;2023-08-20T06:52:17;23.30;99.90
6538;DHT22;3302;52.508;13.454;2023-08-20T06:54:44;23.40;99.90
6538;DHT22;3302;52.508;13.454;2023-08-20T06:57:10;23.30;99.90
6538;DHT22;3302;52.508;13.454;2023-08-20T06:59:36;23.30;99.90
6538;DHT22;3302;52.508;13.454;2023-08-20T07:02:03;23.40;99.90
6538;DHT22;3302;52.508;13.454;2023-08-20T07:04:29;23.40;99.90
6538;DHT22;3302;52.508;13.454;2023-08-20T07:06:55;23.30;99.90
6538;DHT22;3302;52.508;13.454;2023-08-20T07:09:21;23.20;99.90
6538;DHT22;3302;52.508;13.454;2023-08-20T07:11:47;23.20;99.90
6538;DHT22;3302;52.508;13.454;2023-08-20T07:14:13;23.20;99.90
6538;DHT22;3302;52.508;13.454;2023-08-20T07:16:39;23.20;99.90
6538;DHT22;3302;52.508;13.454;2023-08-20T07:19:05;23.30;99.90
6538;DHT22;3302;52.508;13.454;2023-08-20T07:21:31;23.20;99.90
6538;DHT22;3302;52.508;13.454;2023-08-20T07:23:56;23.20;99.90
6538;DHT22;3302;52.508;13.454;2023-08-20T07:26:22;23.40;99.90
6538;DHT22;3302;52.508;13.454;2023-08-20T07:28:48;23.40;99.90
6538;DHT22;3302;52.508;13.454;2023-08-20T07:31:28;23.40;99.90
6538;DHT22;3302;52.508;13.454;2023-08-20T07:33:55;23.30;99.90
6538;DHT22;3302;52.508;13.454;2023-08-20T07:36:22;23.40;99.90
6538;DHT22;3302;52.508;13.454;2023-08-20T07:38:49;23.40;99.90
6538;DHT22;3302;52.508;13.454;2023-08-20T07:41:15;23.40;99.90
6538;DHT22;3302;52.508;13.454;2023-08-20T07:43:42;23.70;99.90
6538;DHT22;3302;52.508;13.454;2023-08-20T07:46:09;23.70;99.90
6538;DHT22;3302;52.508;13.454;2023-08-20T07:48:35;23.90;99.90
6538;DHT22;3302;52.508;13.454;2023-08-20T07:51:02;24.10;99.90
6538;DHT22;3302;52.508;13.454;2023-08-20T07:53:29;24.00;99.90
6538;DHT22;3302;52.508;13.454;2023-08-20T07:55:55;23.50;99.90
6538;DHT22;3302;52.508;13.454;2023-08-20T07:58:21;23.50;99.90
6538;DHT22;3302;52.508;13.454;2023-08-20T08:00:47;23.20;99.90
6538;DHT22;3302;52.508;13.454;2023-08-20T08:03:13;23.30;99.90
6538;DHT22;3302;52.508;13.454;2023-08-20T08:05:46;23.60;99.90
6538;DHT22;3302;52.508;13.454;2023-08-20T08:08:14;23.60;99.90
6538;DHT22;3302;52.508;13.454;2023-08-20T08:10:40;23.50;99.90
6538;DHT22;3302;52.508;13.454;2023-08-20T08:13:06;23.60;99.90
6538;DHT22;3302;52.508;13.454;2023-08-20T08:15:32;23.70;99.90
6538;DHT22;3302;52.508;13.454;2023-08-20T08:17:57;23.70;99.90
6538;DHT22;3302;52.508;13.454;2023-08-20T08:20:23;23.70;99.90
6538;DHT22;3302;52.508;13.454;2023-08-20T08:22:49;23.90;99.90
6538;DHT22;3302;52.508;13.454;2023-08-20T08:25:15;23.90;99.90
6538;DHT22;3302;52.508;13.454;2023-08-20T08:27:41;24.00;99.90
6538;DHT22;3302;52.508;13.454;2023-08-20T08:30:07;24.00;99.90
6538;DHT22;3302;52.508;13.454;2023-08-20T08:32:32;24.10;99.90
6538;DHT22;3302;52.508;13.454;2023-08-20T08:34:58;24.00;99.90
6538;DHT22;3302;52.508;13.454;2023-08-20T08:37:24;23.90;99.90
6538;DHT22;3302;52.508;13.454;2023-08-20T08:39:50;24.10;99.90
6538;DHT22;3302;52.508;13.454;2023-08-20T08:42:16;24.10;99.90
6538;DHT22;3302;52.508;13.454;2023-08-20T08:44:43;24.40;99.90
6538;DHT22;3302;52.508;13.454;2023-08-20T08:47:10;24.50;99.90
6538;DHT22;3302;52.508;13.454;2023-08-20T08:49:37;24.60;99.90
6538;DHT22;3302;52.508;13.454;2023-08-20T08:52:04;24.60;99.90
6538;DHT22;3302;52.508;13.454;2023-08-20T08:54:32;25.00;99.90
6538;DHT22;3302;52.508;13.454;2023-08-20T08:56:59;25.10;99.90
6538;DHT22;3302;52.508;13.454;2023-08-20T08:59:25;25.30;99.90
6538;DHT22;3302;52.508;13.454;2023-08-20T09:01:50;25.30;99.90
6538;DHT22;3302;52.508;13.454;2023-08-20T09:04:16;25.50;99.90
6538;DHT22;3302;52.508;13.454;2023-08-20T09:06:52;25.20;99.90
6538;DHT22;3302;52.508;13.454;2023-08-20T09:09:21;25.40;99.90
6538;DHT22;3302;52.508;13.454;2023-08-20T09:11:48;25.70;99.90
6538;DHT22;3302;52.508;13.454;2023-08-20T09:14:28;25.70;99.90
6538;DHT22;3302;52.508;13.454;2023-08-20T09:16:56;25.90;99.90
6538;DHT22;3302;52.508;13.454;2023-08-20T09:19:22;26.10;99.90
6538;DHT22;3302;52.508;13.454;2023-08-20T09:21:48;26.20;99.90
6538;DHT22;3302;52.508;13.454;2023-08-20T09:24:15;26.40;99.90
6538;DHT22;3302;52.508;13.454;2023-08-20T09:26:45;26.20;99.90
6538;DHT22;3302;52.508;13.454;2023-08-20T09:29:11;25.70;99.90
6538;DHT22;3302;52.508;13.454;2023-08-20T09:31:38;25.80;99.90
6538;DHT22;3302;52.508;13.454;2023-08-20T09:34:04;26.10;99.90
6538;DHT22;3302;52.508;13.454;2023-08-20T09:36:32;26.30;99.90
6538;DHT22;3302;52.508;13.454;2023-08-20T09:38:58;26.30;99.90
6538;DHT22;3302;52.508;13.454;2023-08-20T09:41:25;26.20;99.90
6538;DHT22;3302;52.508;13.454;2023-08-20T09:43:57;26.10;99.90
6538;DHT22;3302;52.508;13.454;2023-08-20T09:46:27;26.10;99.90
6538;DHT22;3302;52.508;13.454;2023-08-20T09:48:57;26.20;99.90
6538;DHT22;3302;52.508;13.454;2023-08-20T09:51:28;26.50;99.90
6538;DHT22;3302;52.508;13.454;2023-08-20T09:54:19;26.60;99.90
6538;DHT22;3302;52.508;13.454;2023-08-20T09:56:54;26.50;99.90
6538;DHT22;3302;52.508;13.454;2023-08-20T09:59:22;26.40;99.90
6538;DHT22;3302;52.508;13.454;2023-08-20T10:01:48;26.60;99.90
6538;DHT22;3302;52.508;13.454;2023-08-20T10:04:17;26.80;99.90
6538;DHT22;3302;52.508;13.454;2023-08-20T10:06:44;26.70;99.90
6538;DHT22;3302;52.508;13.454;2023-08-20T10:09:09;26.80;99.90
6538;DHT22;3302;52.508;13.454;2023-08-20T10:11:35;26.50;99.90
6538;DHT22;3302;52.508;13.454;2023-08-20T10:14:03;26.60;99.90
6538;DHT22;3302;52.508;13.454;2023-08-20T10:16:30;26.70;99.90
6538;DHT22;3302;52.508;13.454;2023-08-20T10:19:02;27.10;99.90
6538;DHT22;3302;52.508;13.454;2023-08-20T10:21:28;27.10;99.90
6538;DHT22;3302;52.508;13.454;2023-08-20T10:23:54;27.00;99.80
6538;DHT22;3302;52.508;13.454;2023-08-20T10:26:20;27.00;99.40
6538;DHT22;3302;52.508;13.454;2023-08-20T10:28:47;26.90;98.40
6538;DHT22;3302;52.508;13.454;2023-08-20T10:31:16;26.80;98.20
6538;DHT22;3302;52.508;13.454;2023-08-20T10:33:50;27.00;98.40
6538;DHT22;3302;52.508;13.454;2023-08-20T10:36:19;27.20;97.60
6538;DHT22;3302;52.508;13.454;2023-08-20T10:38:51;27.30;97.10
6538;DHT22;3302;52.508;13.454;2023-08-20T10:41:25;27.20;96.30
6538;DHT22;3302;52.508;13.454;2023-08-20T10:43:52;27.10;96.20
6538;DHT22;3302;52.508;13.454;2023-08-20T10:46:22;27.10;96.00
6538;DHT22;3302;52.508;13.454;2023-08-20T10:48:57;27.30;95.50
6538;DHT22;3302;52.508;13.454;2023-08-20T10:51:32;27.00;94.70
6538;DHT22;3302;52.508;13.454;2023-08-20T10:56:48;27.10;95.00
6538;DHT22;3302;52.508;13.454;2023-08-20T10:59:16;27.10;94.20
6538;DHT22;3302;52.508;13.454;2023-08-20T11:01:55;27.00;93.90
6538;DHT22;3302;52.508;13.454;2023-08-20T11:04:26;27.30;94.00
6538;DHT22;3302;52.508;13.454;2023-08-20T11:06:56;27.70;93.50
6538;DHT22;3302;52.508;13.454;2023-08-20T11:09:23;27.60;93.00
6538;DHT22;3302;52.508;13.454;2023-08-20T11:11:50;27.70;92.60
6538;DHT22;3302;52.508;13.454;2023-08-20T11:14:18;27.50;91.70
6538;DHT22;3302;52.508;13.454;2023-08-20T11:16:45;27.50;92.40
6538;DHT22;3302;52.508;13.454;2023-08-20T11:19:19;27.50;91.90
6538;DHT22;3302;52.508;13.454;2023-08-20T11:21:45;27.70;92.00
6538;DHT22;3302;52.508;13.454;2023-08-20T11:24:11;27.50;92.00
6538;DHT22;3302;52.508;13.454;2023-08-20T11:26:41;27.60;91.50
6538;DHT22;3302;52.508;13.454;2023-08-20T11:29:08;27.40;91.40
6538;DHT22;3302;52.508;13.454;2023-08-20T11:31:38;27.50;91.10
6538;DHT22;3302;52.508;13.454;2023-08-20T11:34:04;27.60;91.30
6538;DHT22;3302;52.508;13.454;2023-08-20T11:36:31;27.50;91.60
6538;DHT22;3302;52.508;13.454;2023-08-20T11:38:57;27.70;91.10
6538;DHT22;3302;52.508;13.454;2023-08-20T11:41:24;27.60;90.90
6538;DHT22;3302;52.508;13.454;2023-08-20T11:43:52;27.70;91.10
6538;DHT22;3302;52.508;13.454;2023-08-20T11:46:20;27.80;91.00
6538;DHT22;3302;52.508;13.454;2023-08-20T11:49:26;27.90;91.00
6538;DHT22;3302;52.508;13.454;2023-08-20T11:51:52;27.90;90.20
6538;DHT22;3302;52.508;13.454;2023-08-20T11:54:18;28.10;90.10
6538;DHT22;3302;52.508;13.454;2023-08-20T11:56:49;27.90;88.90
6538;DHT22;3302;52.508;13.454;2023-08-20T11:59:17;27.80;88.60
6538;DHT22;3302;52.508;13.454;2023-08-20T12:01:43;27.90;89.90
6538;DHT22;3302;52.508;13.454;2023-08-20T12:04:14;27.80;88.90
6538;DHT22;3302;52.508;13.454;2023-08-20T12:06:40;28.00;88.10
6538;DHT22;3302;52.508;13.454;2023-08-20T12:09:20;28.00;87.70
6538;DHT22;3302;52.508;13.454;2023-08-20T12:11:50;28.00;87.30
6538;DHT22;3302;52.508;13.454;2023-08-20T12:14:19;28.00;87.50
6538;DHT22;3302;52.508;13.454;2023-08-20T12:16:45;28.00;87.90
6538;DHT22;3302;52.508;13.454;2023-08-20T12:19:12;28.00;88.50
6538;DHT22;3302;52.508;13.454;2023-08-20T12:21:38;28.20;87.40
6538;DHT22;3302;52.508;13.454;2023-08-20T12:24:04;27.90;87.30
6538;DHT22;3302;52.508;13.454;2023-08-20T12:26:30;28.00;87.90
6538;DHT22;3302;52.508;13.454;2023-08-20T12:28:56;28.10;87.70
6538;DHT22;3302;52.508;13.454;2023-08-20T12:31:22;28.10;87.80
6538;DHT22;3302;52.508;13.454;2023-08-20T12:33:47;28.00;88.10
6538;DHT22;3302;52.508;13.454;2023-08-20T12:36:13;28.00;88.70
6538;DHT22;3302;52.508;13.454;2023-08-20T12:38:39;28.20;88.10
6538;DHT22;3302;52.508;13.454;2023-08-20T12:41:07;28.20;87.40
6538;DHT22;3302;52.508;13.454;2023-08-20T12:43:32;28.30;86.10
6538;DHT22;3302;52.508;13.454;2023-08-20T12:45:58;28.40;86.70
6538;DHT22;3302;52.508;13.454;2023-08-20T12:48:24;28.50;84.50
6538;DHT22;3302;52.508;13.454;2023-08-20T12:50:50;28.40;83.70
6538;DHT22;3302;52.508;13.454;2023-08-20T12:53:16;28.30;82.10
6538;DHT22;3302;52.508;13.454;2023-08-20T12:55:41;28.30;82.70
6538;DHT22;3302;52.508;13.454;2023-08-20T12:58:07;28.30;81.10
6538;DHT22;3302;52.508;13.454;2023-08-20T13:00:33;28.40;81.40
6538;DHT22;3302;52.508;13.454;2023-08-20T13:02:59;28.40;81.40
6538;DHT22;3302;52.508;13.454;2023-08-20T13:05:26;28.40;81.50
6538;DHT22;3302;52.508;13.454;2023-08-20T13:07:52;28.50;79.80
6538;DHT22;3302;52.508;13.454;2023-08-20T13:10:19;28.50;79.90
6538;DHT22;3302;52.508;13.454;2023-08-20T13:12:49;28.40;79.30
6538;DHT22;3302;52.508;13.454;2023-08-20T13:15:20;28.20;79.30
6538;DHT22;3302;52.508;13.454;2023-08-20T13:17:48;28.30;79.80
6538;DHT22;3302;52.508;13.454;2023-08-20T13:20:15;28.30;78.50
6538;DHT22;3302;52.508;13.454;2023-08-20T13:22:47;28.40;78.60
6538;DHT22;3302;52.508;13.454;2023-08-20T13:25:13;28.30;78.90
6538;DHT22;3302;52.508;13.454;2023-08-20T13:27:40;28.40;78.60
6538;DHT22;3302;52.508;13.454;2023-08-20T13:30:07;28.50;78.70
6538;DHT22;3302;52.508;13.454;2023-08-20T13:32:37;28.70;78.10
6538;DHT22;3302;52.508;13.454;2023-08-20T13:35:03;28.80;76.40
6538;DHT22;3302;52.508;13.454;2023-08-20T13:37:30;28.60;77.10
6538;DHT22;3302;52.508;13.454;2023-08-20T13:39:59;28.60;76.50
6538;DHT22;3302;52.508;13.454;2023-08-20T13:42:26;28.80;75.00
6538;DHT22;3302;52.508;13.454;2023-08-20T13:44:52;28.70;72.20
6538;DHT22;3302;52.508;13.454;2023-08-20T13:47:17;28.90;72.70
6538;DHT22;3302;52.508;13.454;2023-08-20T13:49:43;28.80;73.30
6538;DHT22;3302;52.508;13.454;2023-08-20T13:52:10;28.60;72.30
6538;DHT22;3302;52.508;13.454;2023-08-20T13:54:36;28.50;72.10
6538;DHT22;3302;52.508;13.454;2023-08-20T13:57:02;28.70;71.40
6538;DHT22;3302;52.508;13.454;2023-08-20T13:59:29;28.80;71.60
6538;DHT22;3302;52.508;13.454;2023-08-20T14:01:55;28.90;69.80
6538;DHT22;3302;52.508;13.454;2023-08-20T14:04:21;28.70;68.70
6538;DHT22;3302;52.508;13.454;2023-08-20T14:06:47;28.70;69.10
6538;DHT22;3302;52.508;13.454;2023-08-20T14:09:13;28.70;66.70
6538;DHT22;3302;52.508;13.454;2023-08-20T14:11:39;28.70;67.80
6538;DHT22;3302;52.508;13.454;2023-08-20T14:14:05;28.60;68.10
6538;DHT22;3302;52.508;13.454;2023-08-20T14:16:31;28.90;68.70
6538;DHT22;3302;52.508;13.454;2023-08-20T14:18:57;28.70;69.00
6538;DHT22;3302;52.508;13.454;2023-08-20T14:21:23;28.60;69.80
6538;DHT22;3302;52.508;13.454;2023-08-20T14:23:49;28.60;68.20
6538;DHT22;3302;52.508;13.454;2023-08-20T14:26:15;28.50;67.70
6538;DHT22;3302;52.508;13.454;2023-08-20T14:28:41;28.40;65.30
6538;DHT22;3302;52.508;13.454;2023-08-20T14:31:09;28.50;64.90
6538;DHT22;3302;52.508;13.454;2023-08-20T14:33:35;28.40;63.80
6538;DHT22;3302;52.508;13.454;2023-08-20T14:36:01;28.40;62.40
6538;DHT22;3302;52.508;13.454;2023-08-20T14:38:29;28.40;62.20
6538;DHT22;3302;52.508;13.454;2023-08-20T14:41:02;28.40;58.10
6538;DHT22;3302;52.508;13.454;2023-08-20T14:43:28;28.40;54.90
6538;DHT22;3302;52.508;13.454;2023-08-20T14:45:54;28.50;54.50
6538;DHT22;3302;52.508;13.454;2023-08-20T14:48:24;28.50;55.30
6538;DHT22;3302;52.508;13.454;2023-08-20T14:50:53;28.60;53.90
6538;DHT22;3302;52.508;13.454;2023-08-20T14:53:19;28.40;53.40
6538;DHT22;3302;52.508;13.454;2023-08-20T14:55:45;28.30;53.00
6538;DHT22;3302;52.508;13.454;2023-08-20T14:58:11;28.30;53.30
6538;DHT22;3302;52.508;13.454;2023-08-20T15:00:37;28.40;53.70
6538;DHT22;3302;52.508;13.454;2023-08-20T15:03:03;28.30;54.60
6538;DHT22;3302;52.508;13.454;2023-08-20T15:05:30;28.50;55.40
6538;DHT22;3302;52.508;13.454;2023-08-20T15:07:56;28.50;56.80
6538;DHT22;3302;52.508;13.454;2023-08-20T15:10:22;28.50;57.80
6538;DHT22;3302;52.508;13.454;2023-08-20T15:12:48;28.40;58.60
6538;DHT22;3302;52.508;13.454;2023-08-20T15:15:13;28.40;58.70
6538;DHT22;3302;52.508;13.454;2023-08-20T15:17:39;28.30;59.90
6538;DHT22;3302;52.508;13.454;2023-08-20T15:20:06;28.10;61.10
6538;DHT22;3302;52.508;13.454;2023-08-20T15:22:39;28.30;61.00
6538;DHT22;3302;52.508;13.454;2023-08-20T15:25:05;28.40;61.10
6538;DHT22;3302;52.508;13.454;2023-08-20T15:27:33;28.70;60.40
6538;DHT22;3302;52.508;13.454;2023-08-20T15:30:00;28.90;60.70
6538;DHT22;3302;52.508;13.454;2023-08-20T15:32:26;29.10;60.60
6538;DHT22;3302;52.508;13.454;2023-08-20T15:34:53;29.30;59.20
6538;DHT22;3302;52.508;13.454;2023-08-20T15:37:19;29.30;58.70
6538;DHT22;3302;52.508;13.454;2023-08-20T15:39:46;29.50;59.70
6538;DHT22;3302;52.508;13.454;2023-08-20T15:42:12;29.60;57.90
6538;DHT22;3302;52.508;13.454;2023-08-20T15:44:40;29.60;56.60
6538;DHT22;3302;52.508;13.454;2023-08-20T15:47:07;29.70;57.00
6538;DHT22;3302;52.508;13.454;2023-08-20T15:49:33;30.30;55.50
6538;DHT22;3302;52.508;13.454;2023-08-20T15:52:00;30.20;55.50
6538;DHT22;3302;52.508;13.454;2023-08-20T15:54:26;30.30;54.90
6538;DHT22;3302;52.508;13.454;2023-08-20T15:56:52;30.40;55.10